Time;durP1;ratioP1;P1;durP2;ratioP2;P2;SDS_P1;SDS_P2;PMS_P1;PMS_P2;Temp;Humidity;BMP_temperature;BMP_pressure;BME280_temperature;BME280_humidity;BME280_pressure;Samples;Min_cycle;Max_cycle;Signal;HPM_P1;HPM_P2
2022/01/22 00:00:23;;;;;;;10.35;2.53;;;6.00;98.70;;;;;;5032084;28;20480;-73
2022/01/22 00:02:50;;;;;;;8.05;2.40;;;6.00;98.70;;;;;;5031475;28;20029;-73
2022/01/22 00:05:18;;;;;;;13.40;3.00;;;6.00;98.70;;;;;;5032652;28;20471;-73
2022/01/22 00:07:43;;;;;;;9.25;2.53;;;6.00;98.80;;;;;;5029621;28;20367;-73
2022/01/22 00:10:15;;;;;;;11.05;2.42;;;6.00;98.70;;;;;;5020615;28;20112;-73
2022/01/22 00:15:16;;;;;;;11.00;2.83;;;6.00;98.60;;;;;;5032846;28;20057;-74
2022/01/22 00:17:42;;;;;;;9.07;2.67;;;6.00;98.60;;;;;;5031950;28;20025;-73
2022/01/22 00:20:09;;;;;;;11.20;2.35;;;6.00;98.60;;;;;;5037932;28;20842;-73
2022/01/22 00:22:36;;;;;;;8.63;2.33;;;6.00;98.50;;;;;;5036982;28;20021;-73
2022/01/22 00:25:07;;;;;;;9.98;2.92;;;6.00;98.50;;;;;;5034913;28;20476;-73
2022/01/22 00:27:33;;;;;;;4.13;1.83;;;6.00;98.40;;;;;;5025470;28;20021;-73
2022/01/22 00:29:58;;;;;;;8.20;2.10;;;5.90;98.40;;;;;;5031734;28;20255;-73
2022/01/22 00:32:24;;;;;;;6.95;2.08;;;6.00;98.40;;;;;;5044556;28;20071;-74
2022/01/22 00:34:49;;;;;;;9.63;2.08;;;5.90;98.40;;;;;;5037165;28;20068;-74
2022/01/22 00:37:15;;;;;;;6.47;2.15;;;5.90;98.40;;;;;;5033184;28;20033;-74
2022/01/22 00:39:40;;;;;;;8.57;2.20;;;5.90;98.40;;;;;;5021947;28;20038;-74
2022/01/22 00:42:13;;;;;;;3.70;1.17;;;5.90;98.40;;;;;;5031488;28;20030;-74
2022/01/22 00:44:39;;;;;;;4.90;1.45;;;5.90;98.40;;;;;;5043660;28;20364;-74
2022/01/22 00:47:05;;;;;;;10.68;2.22;;;5.90;98.40;;;;;;5034704;28;20036;-74
2022/01/22 00:49:31;;;;;;;8.98;2.53;;;5.90;98.40;;;;;;5026918;28;20427;-74
2022/01/22 00:51:57;;;;;;;8.63;2.15;;;5.90;98.40;;;;;;5029936;28;20037;-74
2022/01/22 00:54:22;;;;;;;8.93;2.20;;;5.90;98.30;;;;;;5038875;28;20026;-74
2022/01/22 00:56:48;;;;;;;8.73;2.03;;;5.90;98.40;;;;;;5036127;28;20124;-74
2022/01/22 00:59:13;;;;;;;5.60;2.40;;;5.90;98.40;;;;;;5036961;28;20448;-74
2022/01/22 01:01:39;;;;;;;10.43;2.35;;;5.90;98.30;;;;;;5038900;28;20045;-74
2022/01/22 01:04:07;;;;;;;12.05;2.33;;;5.90;98.30;;;;;;5021026;28;20108;-74
2022/01/22 01:06:33;;;;;;;12.10;2.53;;;5.90;98.30;;;;;;5040270;28;20029;-74
2022/01/22 01:09:00;;;;;;;11.93;2.45;;;5.90;98.20;;;;;;5036087;28;20028;-74
2022/01/22 01:11:28;;;;;;;10.80;2.35;;;5.90;98.20;;;;;;5035364;28;20322;-74
2022/01/22 01:13:58;;;;;;;10.05;2.28;;;5.90;98.30;;;;;;5031069;28;20071;-74
2022/01/22 01:35:26;;;;;;;10.13;2.00;;;5.80;98.30;;;;;;5035835;28;20033;-74
2022/01/22 01:37:53;;;;;;;11.15;2.30;;;5.80;98.30;;;;;;5035030;28;20063;-74
2022/01/22 01:40:22;;;;;;;13.70;2.33;;;5.80;98.30;;;;;;5023244;28;20099;-74
2022/01/22 01:45:13;;;;;;;10.27;2.10;;;5.80;98.30;;;;;;5032207;28;20036;-74
2022/01/22 01:47:41;;;;;;;13.13;3.08;;;5.80;98.30;;;;;;5032017;28;20034;-74
2022/01/22 01:50:07;;;;;;;12.35;2.63;;;5.80;98.30;;;;;;5031573;28;20029;-74
2022/01/22 01:52:41;;;;;;;12.25;2.30;;;5.80;98.30;;;;;;5019182;28;20108;-74
2022/01/22 01:55:18;;;;;;;11.20;2.55;;;5.80;98.30;;;;;;5038569;28;21166;-74
2022/01/22 01:57:44;;;;;;;11.63;2.58;;;5.80;98.40;;;;;;5025996;28;20029;-74
2022/01/22 02:00:22;;;;;;;9.43;2.85;;;5.70;98.40;;;;;;5024386;28;20051;-74
2022/01/22 02:02:48;;;;;;;10.55;2.95;;;5.80;98.40;;;;;;5020591;28;20380;-74
2022/01/22 02:05:16;;;;;;;9.90;2.70;;;5.80;98.40;;;;;;5026910;28;20045;-74
2022/01/22 02:07:43;;;;;;;10.93;2.70;;;5.70;98.40;;;;;;5022896;28;20466;-73
2022/01/22 02:10:15;;;;;;;12.70;2.70;;;5.70;98.40;;;;;;5019312;28;20029;-74
2022/01/22 02:25:57;;;;;;;11.50;2.78;;;5.70;98.40;;;;;;5038895;28;20029;-73
2022/01/22 02:28:23;;;;;;;12.65;3.03;;;5.70;98.40;;;;;;5026817;28;20056;-74
2022/01/22 02:30:55;;;;;;;11.63;3.05;;;5.60;98.40;;;;;;5031206;28;20025;-74
2022/01/22 02:33:33;;;;;;;12.10;2.83;;;5.60;98.40;;;;;;5030045;28;20039;-74
2022/01/22 02:36:18;;;;;;;8.27;2.50;;;5.60;98.40;;;;;;5032259;28;20029;-73
2022/01/22 02:38:52;;;;;;;12.30;3.00;;;5.60;98.40;;;;;;5030956;28;20021;-74
2022/01/22 02:41:20;;;;;;;13.80;2.90;;;5.60;98.40;;;;;;5031671;28;20032;-73
2022/01/22 02:43:47;;;;;;;11.63;2.80;;;5.60;98.40;;;;;;5035780;28;20021;-74
2022/01/22 02:46:18;;;;;;;17.48;2.70;;;5.60;98.40;;;;;;5033029;28;20025;-74
2022/01/22 02:48:44;;;;;;;9.50;3.28;;;5.60;98.40;;;;;;5029744;28;20025;-74
2022/01/22 02:51:10;;;;;;;10.38;3.05;;;5.60;98.40;;;;;;5029980;28;20025;-74
2022/01/22 02:53:35;;;;;;;17.02;2.80;;;5.60;98.40;;;;;;5028259;28;20463;-74
2022/01/22 02:56:01;;;;;;;15.65;2.95;;;5.60;98.40;;;;;;5034679;28;20133;-74
2022/01/22 02:58:28;;;;;;;14.35;2.95;;;5.60;98.40;;;;;;5031521;28;20009;-74
2022/01/22 03:00:54;;;;;;;14.65;2.40;;;5.60;98.40;;;;;;5025994;28;20032;-74
2022/01/22 03:03:19;;;;;;;12.18;2.85;;;5.60;98.40;;;;;;5035694;28;20037;-73
2022/01/22 03:05:45;;;;;;;9.38;3.10;;;5.50;98.40;;;;;;5029782;28;20048;-73
2022/01/22 03:08:12;;;;;;;10.43;2.63;;;5.50;98.40;;;;;;5030191;28;20041;-74
2022/01/22 03:10:39;;;;;;;13.82;2.25;;;5.50;98.30;;;;;;5033033;28;20083;-74
2022/01/22 03:21:27;;;;;;;9.75;2.33;;;5.50;98.30;;;;;;5038513;28;20024;-74
2022/01/22 03:29:32;;;;;;;11.93;2.08;;;5.40;98.30;;;;;;5028351;28;20045;-73
2022/01/22 03:31:58;;;;;;;10.73;2.38;;;5.40;98.30;;;;;;5025645;28;20025;-73
2022/01/22 03:34:23;;;;;;;12.05;2.72;;;5.40;98.20;;;;;;5029281;28;20091;-73
2022/01/22 03:36:49;;;;;;;15.05;2.65;;;5.50;98.20;;;;;;5033164;28;20175;-73
2022/01/22 03:39:14;;;;;;;11.20;2.67;;;5.40;98.20;;;;;;5032113;28;20044;-73
2022/01/22 03:41:40;;;;;;;7.95;2.30;;;5.40;98.20;;;;;;5033638;28;20043;-73
2022/01/22 03:44:08;;;;;;;9.70;2.47;;;5.40;98.20;;;;;;5034391;28;20033;-73
2022/01/22 03:46:36;;;;;;;15.43;2.58;;;5.40;98.20;;;;;;5033413;28;20070;-73
2022/01/22 03:49:02;;;;;;;11.98;2.47;;;5.40;98.20;;;;;;5029382;28;20017;-74
2022/01/22 03:51:27;;;;;;;13.50;2.47;;;5.40;98.20;;;;;;5023621;28;20112;-73
2022/01/22 03:53:53;;;;;;;12.98;2.83;;;5.40;98.20;;;;;;5037598;28;20547;-73
2022/01/22 03:56:19;;;;;;;11.25;2.40;;;5.40;98.20;;;;;;5031790;28;20075;-74
2022/01/22 03:58:45;;;;;;;10.18;2.67;;;5.40;98.30;;;;;;5032876;28;20034;-73
2022/01/22 04:04:01;;;;;;;13.75;2.67;;;5.50;98.30;;;;;;5025741;28;20064;-73
2022/01/22 04:09:03;;;;;;;8.95;2.35;;;5.40;98.30;;;;;;5033321;28;20022;-74
2022/01/22 04:11:30;;;;;;;13.57;2.77;;;5.50;98.30;;;;;;5033248;28;20072;-74
2022/01/22 04:14:00;;;;;;;17.80;3.22;;;5.50;98.30;;;;;;5020744;28;20253;-73
2022/01/22 04:16:27;;;;;;;10.70;2.95;;;5.40;98.30;;;;;;5020165;28;20053;-74
2022/01/22 04:27:14;;;;;;;11.23;3.70;;;5.50;98.30;;;;;;5027591;28;20116;-74
2022/01/22 04:29:41;;;;;;;15.25;3.20;;;5.40;98.30;;;;;;5026724;28;20472;-74
2022/01/22 04:32:08;;;;;;;12.63;3.25;;;5.50;98.40;;;;;;5026812;28;20033;-74
2022/01/22 04:34:33;;;;;;;16.98;3.15;;;5.50;98.40;;;;;;5021310;28;20452;-74
2022/01/22 04:37:00;;;;;;;12.48;3.22;;;5.40;98.40;;;;;;5031684;28;20036;-74
2022/01/22 04:39:27;;;;;;;11.13;3.03;;;5.40;98.40;;;;;;5028393;28;20021;-73
2022/01/22 04:41:55;;;;;;;12.57;2.58;;;5.40;98.40;;;;;;5033473;28;20123;-74
2022/01/22 04:44:24;;;;;;;9.75;2.10;;;5.40;98.40;;;;;;5032914;28;20022;-74
2022/01/22 04:47:01;;;;;;;7.55;2.28;;;5.40;98.40;;;;;;5040526;28;20463;-73
2022/01/22 04:55:01;;;;;;;10.77;2.80;;;5.40;98.40;;;;;;5034747;28;20037;-74
2022/01/22 04:57:38;;;;;;;14.50;2.45;;;5.40;98.40;;;;;;5028266;28;20119;-74
2022/01/22 05:00:08;;;;;;;9.60;2.70;;;5.40;98.40;;;;;;5036815;28;20697;-73
2022/01/22 05:02:33;;;;;;;14.07;3.20;;;5.40;98.40;;;;;;5034106;28;20026;-73
2022/01/22 05:04:59;;;;;;;14.50;2.55;;;5.40;98.50;;;;;;5038427;28;20029;-74
2022/01/22 05:07:24;;;;;;;11.98;3.25;;;5.40;98.40;;;;;;5037027;28;20040;-73
2022/01/22 05:09:50;;;;;;;11.63;2.70;;;5.40;98.50;;;;;;5039417;28;20037;-73
2022/01/22 05:12:15;;;;;;;12.30;2.75;;;5.40;98.50;;;;;;5035117;28;20100;-73
2022/01/22 05:14:41;;;;;;;10.75;2.72;;;5.40;98.50;;;;;;5028993;28;20530;-73
2022/01/22 05:17:08;;;;;;;16.60;3.25;;;5.40;98.60;;;;;;5033839;28;20116;-74
2022/01/22 05:19:46;;;;;;;14.95;3.72;;;5.30;98.50;;;;;;5039210;28;20436;-74
2022/01/22 05:22:38;;;;;;;11.07;3.00;;;5.30;98.50;;;;;;5037072;28;20025;-74
2022/01/22 05:25:08;;;;;;;15.40;3.45;;;5.30;98.50;;;;;;5031579;28;20017;-74
2022/01/22 05:32:58;;;;;;;16.40;3.10;;;5.30;98.60;;;;;;5039788;28;20033;-74
2022/01/22 05:38:08;;;;;;;13.40;2.80;;;5.30;98.60;;;;;;5025498;28;20037;-74
2022/01/22 05:40:35;;;;;;;18.73;3.72;;;5.30;98.60;;;;;;5031465;28;20057;-74
2022/01/22 05:43:02;;;;;;;14.45;3.45;;;5.30;98.60;;;;;;5034839;28;20036;-74
2022/01/22 05:45:27;;;;;;;15.48;3.78;;;5.30;98.60;;;;;;5032504;28;20075;-74
2022/01/22 05:47:53;;;;;;;18.73;3.78;;;5.30;98.60;;;;;;5036558;28;20453;-74
2022/01/22 05:50:32;;;;;;;14.90;3.50;;;5.30;98.60;;;;;;5030519;28;20605;-74
2022/01/22 05:53:03;;;;;;;15.43;3.15;;;5.30;98.60;;;;;;5034499;28;20026;-74
2022/01/22 06:00:52;;;;;;;10.90;2.80;;;5.30;98.70;;;;;;5022836;28;20033;-74
2022/01/22 06:03:18;;;;;;;8.75;2.50;;;5.30;98.70;;;;;;5033098;28;20484;-74
2022/01/22 06:05:44;;;;;;;9.73;2.60;;;5.30;98.70;;;;;;5031298;28;20052;-74
2022/01/22 06:08:15;;;;;;;10.18;2.60;;;5.30;98.70;;;;;;5029581;28;20029;-74
2022/01/22 06:10:40;;;;;;;9.43;2.25;;;5.30;98.70;;;;;;5038851;28;20108;-74
2022/01/22 06:13:15;;;;;;;14.88;3.03;;;5.30;98.70;;;;;;5040915;28;20141;-74
2022/01/22 06:15:41;;;;;;;11.65;2.40;;;5.30;98.70;;;;;;5033426;28;20063;-74
2022/01/22 06:18:06;;;;;;;8.55;2.53;;;5.30;98.70;;;;;;5039875;28;20510;-74
2022/01/22 06:20:32;;;;;;;11.77;2.58;;;5.30;98.70;;;;;;5026658;28;20448;-74
2022/01/22 06:22:58;;;;;;;12.13;2.33;;;5.30;98.70;;;;;;5031912;28;20029;-74
2022/01/22 06:25:24;;;;;;;8.60;2.38;;;5.30;98.70;;;;;;5035005;28;20033;-74
2022/01/22 06:27:49;;;;;;;9.85;2.88;;;5.30;98.70;;;;;;5023163;28;20075;-74
2022/01/22 06:30:15;;;;;;;7.18;2.88;;;5.30;98.70;;;;;;5029281;28;20033;-75
2022/01/22 06:32:40;;;;;;;10.40;2.95;;;5.30;98.70;;;;;;5035469;28;20028;-76
2022/01/22 06:35:06;;;;;;;13.57;3.13;;;5.30;98.70;;;;;;5038206;28;20045;-76
2022/01/22 06:37:32;;;;;;;14.10;3.30;;;5.30;98.70;;;;;;5032479;28;20043;-76
2022/01/22 06:42:35;;;;;;;19.73;5.00;;;5.30;98.70;;;;;;5030416;28;22180;-76
2022/01/22 06:45:03;;;;;;;17.50;4.57;;;5.40;98.70;;;;;;5034180;28;20047;-76
2022/01/22 06:47:30;;;;;;;13.95;3.72;;;5.30;98.70;;;;;;5034528;28;20022;-76
2022/01/22 06:49:56;;;;;;;15.93;3.28;;;5.30;98.70;;;;;;5036249;28;20105;-76
2022/01/22 06:52:22;;;;;;;18.50;3.50;;;5.40;98.70;;;;;;5030539;28;20064;-76
2022/01/22 06:54:47;;;;;;;16.23;3.13;;;5.40;98.70;;;;;;5034038;28;20045;-76
2022/01/22 06:57:13;;;;;;;14.20;3.05;;;5.40;98.70;;;;;;5030428;28;20032;-76
2022/01/22 06:59:39;;;;;;;13.95;3.80;;;5.40;98.70;;;;;;5027873;28;20068;-76
2022/01/22 07:02:05;;;;;;;14.80;3.75;;;5.40;98.70;;;;;;5029198;28;20047;-76
2022/01/22 07:04:36;;;;;;;18.13;3.97;;;5.40;98.70;;;;;;5039858;28;20518;-75
2022/01/22 07:07:02;;;;;;;17.35;3.30;;;5.30;98.70;;;;;;5040308;28;20044;-76
2022/01/22 07:09:28;;;;;;;16.55;3.60;;;5.40;98.70;;;;;;5034357;28;20033;-76
2022/01/22 07:11:53;;;;;;;18.70;4.63;;;5.40;98.70;;;;;;5029458;28;20025;-76
2022/01/22 07:14:19;;;;;;;15.27;3.65;;;5.40;98.70;;;;;;5019464;28;20500;-76
2022/01/22 07:16:44;;;;;;;18.80;4.20;;;5.50;98.70;;;;;;5026284;28;20376;-76
2022/01/22 07:19:17;;;;;;;14.32;4.35;;;5.50;98.70;;;;;;5033652;28;20361;-76
2022/01/22 07:21:42;;;;;;;13.95;3.90;;;5.50;98.70;;;;;;5028391;28;20048;-76
2022/01/22 07:24:23;;;;;;;18.90;4.15;;;5.50;98.70;;;;;;5021077;28;20679;-76
2022/01/22 07:26:55;;;;;;;15.68;3.60;;;5.50;98.70;;;;;;5023379;28;20040;-76
2022/01/22 07:29:22;;;;;;;11.60;3.22;;;5.50;98.70;;;;;;5031053;28;20111;-76
2022/01/22 07:31:48;;;;;;;16.38;3.53;;;5.50;98.70;;;;;;5026282;28;20030;-76
2022/01/22 07:34:14;;;;;;;15.30;2.90;;;5.50;98.70;;;;;;5017084;28;20038;-76
2022/01/22 07:36:40;;;;;;;10.98;2.78;;;5.50;98.70;;;;;;5018794;28;20489;-76
2022/01/22 07:39:06;;;;;;;9.55;2.45;;;5.50;98.70;;;;;;5020653;28;20057;-76
2022/01/22 07:41:31;;;;;;;9.02;2.67;;;5.50;98.70;;;;;;5028237;28;20067;-75
2022/01/22 07:43:56;;;;;;;7.32;2.33;;;5.50;98.70;;;;;;5032643;28;20033;-75
2022/01/22 07:46:22;;;;;;;13.52;3.00;;;5.50;98.70;;;;;;5032928;28;20032;-76
2022/01/22 07:48:48;;;;;;;12.63;2.67;;;5.50;98.70;;;;;;5029806;28;20057;-78
2022/01/22 07:51:15;;;;;;;7.82;2.70;;;5.50;98.70;;;;;;5036902;28;20029;-78
2022/01/22 07:53:41;;;;;;;6.90;2.83;;;5.50;98.70;;;;;;5037021;28;20044;-78
2022/01/22 07:56:06;;;;;;;7.18;2.80;;;5.50;98.70;;;;;;5038882;28;20041;-75
2022/01/22 07:58:32;;;;;;;11.68;2.88;;;5.50;98.80;;;;;;5028131;28;20364;-75
2022/01/22 08:00:57;;;;;;;14.43;2.45;;;5.50;98.70;;;;;;5035774;28;20044;-76
2022/01/22 08:03:26;;;;;;;5.38;2.22;;;5.50;98.70;;;;;;5032782;28;20030;-76
2022/01/22 08:05:51;;;;;;;9.32;2.65;;;5.50;98.80;;;;;;5024023;28;20344;-76
2022/01/22 08:08:17;;;;;;;12.30;2.65;;;5.50;98.70;;;;;;5034176;28;20083;-75
2022/01/22 08:10:42;;;;;;;11.18;2.88;;;5.60;98.80;;;;;;5043839;28;20032;-76
2022/01/22 08:13:08;;;;;;;15.52;3.58;;;5.60;98.80;;;;;;5029001;28;20100;-75
2022/01/22 08:15:33;;;;;;;15.15;3.75;;;5.50;98.80;;;;;;5017932;28;20127;-76
2022/01/22 08:18:00;;;;;;;18.23;3.92;;;5.50;98.70;;;;;;5026623;28;20029;-75
2022/01/22 08:20:26;;;;;;;14.70;4.10;;;5.50;98.70;;;;;;5033234;28;20762;-75
2022/01/22 08:22:53;;;;;;;22.63;5.13;;;5.60;98.70;;;;;;5033113;28;20171;-75
2022/01/22 08:25:19;;;;;;;20.35;5.22;;;5.50;98.70;;;;;;5031773;28;20057;-76
2022/01/22 08:30:31;;;;;;;19.02;5.53;;;5.60;98.70;;;;;;5031355;28;20064;-76
2022/01/22 08:33:20;;;;;;;16.08;5.35;;;5.60;98.70;;;;;;5032800;28;20025;-76
2022/01/22 08:35:52;;;;;;;17.05;4.72;;;5.60;98.70;;;;;;5032445;28;20432;-76
2022/01/22 08:38:18;;;;;;;15.27;4.38;;;5.60;98.70;;;;;;5025561;28;20369;-76
2022/01/22 08:40:44;;;;;;;20.00;4.65;;;5.60;98.70;;;;;;5034865;28;20024;-76
2022/01/22 08:43:10;;;;;;;16.85;4.63;;;5.60;98.60;;;;;;5032930;28;20044;-76
2022/01/22 08:45:36;;;;;;;14.90;4.15;;;5.60;98.60;;;;;;5038786;28;20449;-76
2022/01/22 08:48:02;;;;;;;14.60;4.32;;;5.60;98.60;;;;;;5031667;28;20440;-78
2022/01/22 08:50:28;;;;;;;16.25;3.85;;;5.60;98.60;;;;;;5035527;28;20456;-77
2022/01/22 08:52:53;;;;;;;16.88;4.00;;;5.60;98.60;;;;;;5038585;28;20033;-77
2022/01/22 08:55:19;;;;;;;11.40;3.42;;;5.70;98.50;;;;;;5034696;28;20114;-76
2022/01/22 08:57:49;;;;;;;11.48;3.17;;;5.70;98.50;;;;;;5035488;28;20104;-76
2022/01/22 09:00:17;;;;;;;19.30;3.20;;;5.70;98.40;;;;;;5029350;28;20049;-76
2022/01/22 09:02:44;;;;;;;16.40;3.58;;;5.70;98.40;;;;;;5034317;28;20033;-76
2022/01/22 09:05:10;;;;;;;16.17;3.30;;;5.70;98.40;;;;;;5035732;28;20044;-76
2022/01/22 09:07:35;;;;;;;10.18;2.92;;;5.70;98.40;;;;;;5033885;28;20025;-75
2022/01/22 09:10:01;;;;;;;10.40;3.17;;;5.70;98.40;;;;;;5039360;28;20577;-75
2022/01/22 09:12:26;;;;;;;12.25;2.95;;;5.80;98.30;;;;;;5037837;28;20053;-75
2022/01/22 09:14:52;;;;;;;11.93;3.05;;;5.70;98.10;;;;;;5031381;28;20358;-76
2022/01/22 09:17:18;;;;;;;18.98;3.10;;;5.80;98.20;;;;;;5041025;28;20029;-76
2022/01/22 09:19:46;;;;;;;11.93;3.03;;;5.80;98.20;;;;;;5027614;28;20020;-76
2022/01/22 09:22:12;;;;;;;16.30;3.25;;;5.80;98.10;;;;;;5042560;28;20044;-76
2022/01/22 09:24:38;;;;;;;12.13;3.30;;;5.80;98.10;;;;;;5027715;28;20021;-76
2022/01/22 09:27:05;;;;;;;11.75;2.88;;;5.80;98.00;;;;;;5030963;28;20060;-76
2022/01/22 09:29:31;;;;;;;17.50;3.00;;;5.90;98.10;;;;;;5032192;28;20029;-76
2022/01/22 09:31:57;;;;;;;10.73;2.50;;;6.00;98.00;;;;;;5024096;28;20021;-76
2022/01/22 09:34:23;;;;;;;10.63;2.78;;;6.10;98.00;;;;;;5033547;28;20096;-76
2022/01/22 09:36:48;;;;;;;8.50;2.35;;;6.10;97.80;;;;;;5035413;28;20139;-76
2022/01/22 09:39:14;;;;;;;12.82;2.50;;;6.10;97.70;;;;;;5025224;28;20025;-76
2022/01/22 09:41:39;;;;;;;7.10;2.20;;;6.10;97.70;;;;;;5032127;28;20040;-78
2022/01/22 09:44:08;;;;;;;7.43;2.70;;;6.20;97.80;;;;;;5034852;28;20023;-79
2022/01/22 09:46:34;;;;;;;10.40;2.53;;;6.30;97.80;;;;;;5034722;28;20083;-78
2022/01/22 09:49:00;;;;;;;8.45;2.17;;;6.10;97.10;;;;;;5029215;28;20035;-78
2022/01/22 09:51:25;;;;;;;6.93;2.38;;;6.20;97.20;;;;;;5033911;28;20029;-78
2022/01/22 09:53:51;;;;;;;8.27;2.42;;;6.20;97.30;;;;;;5031984;28;20053;-78
2022/01/22 09:56:20;;;;;;;6.65;2.50;;;6.10;97.10;;;;;;5029354;28;20034;-78
2022/01/22 09:58:46;;;;;;;11.98;2.78;;;6.10;97.20;;;;;;5033580;28;20024;-78
2022/01/22 10:01:27;;;;;;;9.95;2.97;;;6.10;97.10;;;;;;5035662;28;20355;-78
2022/01/22 10:03:56;;;;;;;10.32;3.22;;;6.20;97.20;;;;;;5040061;28;20021;-78
2022/01/22 10:06:25;;;;;;;6.90;2.63;;;6.20;97.20;;;;;;5037562;28;20164;-78
2022/01/22 10:08:55;;;;;;;10.05;2.63;;;6.20;97.10;;;;;;5028751;28;20094;-78
2022/01/22 10:11:23;;;;;;;7.37;2.67;;;6.20;97.00;;;;;;5030699;28;20039;-78
2022/01/22 10:13:52;;;;;;;7.18;2.40;;;6.20;97.00;;;;;;5031958;28;20021;-78
2022/01/22 10:16:28;;;;;;;6.25;2.38;;;6.30;97.00;;;;;;5030289;28;20041;-78
2022/01/22 10:19:15;;;;;;;6.93;2.67;;;6.20;96.90;;;;;;5028569;28;20116;-75
2022/01/22 10:21:44;;;;;;;7.10;1.73;;;6.20;97.00;;;;;;5027997;28;20451;-78
2022/01/22 10:24:22;;;;;;;6.10;2.35;;;6.30;97.10;;;;;;5035479;28;20487;-76
2022/01/22 10:27:08;;;;;;;17.30;9.25;;;6.30;97.20;;;;;;5032165;28;20053;-75
2022/01/22 10:29:33;;;;;;;19.95;11.10;;;6.40;97.20;;;;;;5032501;28;20034;-73
2022/01/22 10:32:02;;;;;;;16.08;8.73;;;6.40;97.20;;;;;;5031076;28;20034;-80
2022/01/22 10:34:30;;;;;;;8.35;5.20;;;6.40;97.30;;;;;;5026482;28;20117;-76
2022/01/22 10:37:00;;;;;;;6.18;2.63;;;6.40;97.20;;;;;;5025600;28;20107;-79
2022/01/22 10:39:26;;;;;;;4.65;1.88;;;6.50;97.30;;;;;;5025398;28;20037;-76
2022/01/22 10:41:52;;;;;;;3.40;1.77;;;6.50;97.30;;;;;;5029888;28;20044;-76
2022/01/22 10:44:45;;;;;;;4.43;1.58;;;6.40;97.30;;;;;;5023622;28;20036;-76
2022/01/22 10:47:22;;;;;;;3.72;1.50;;;6.40;97.40;;;;;;5023404;28;20164;-76
2022/01/22 10:49:48;;;;;;;8.00;2.10;;;6.40;97.50;;;;;;5028203;28;20033;-75
2022/01/22 10:52:14;;;;;;;5.00;1.80;;;6.30;97.30;;;;;;5020909;28;20018;-75
2022/01/22 10:54:39;;;;;;;4.32;1.52;;;6.30;97.40;;;;;;5020235;28;20044;-76
2022/01/22 10:57:13;;;;;;;7.38;1.83;;;6.30;97.40;;;;;;5022850;28;20076;-76
2022/01/22 10:59:58;;;;;;;6.05;2.35;;;6.40;97.50;;;;;;5024236;28;20032;-77
2022/01/22 11:02:38;;;;;;;5.75;2.00;;;6.30;97.40;;;;;;5022058;28;20018;-76
2022/01/22 11:05:05;;;;;;;4.80;2.00;;;6.40;97.40;;;;;;5027219;28;20040;-77
2022/01/22 11:07:31;;;;;;;6.55;2.30;;;6.40;97.30;;;;;;5024998;28;20385;-76
2022/01/22 11:09:56;;;;;;;2.75;1.67;;;6.40;97.20;;;;;;5040394;28;20035;-76
2022/01/22 11:12:22;;;;;;;7.85;2.97;;;6.40;97.00;;;;;;5019508;28;20036;-77
2022/01/22 11:14:47;;;;;;;5.60;2.20;;;6.50;97.10;;;;;;5020344;28;20422;-76
2022/01/22 11:17:14;;;;;;;3.75;1.60;;;6.50;96.90;;;;;;5021581;28;20038;-76
2022/01/22 11:19:44;;;;;;;4.38;1.27;;;6.50;97.00;;;;;;5025021;28;20025;-76
2022/01/22 11:22:11;;;;;;;3.53;1.42;;;6.50;97.00;;;;;;5015368;28;20029;-76
2022/01/22 11:24:40;;;;;;;3.15;1.67;;;6.60;97.10;;;;;;5023743;28;20120;-75
2022/01/22 11:27:08;;;;;;;2.03;1.10;;;6.70;97.10;;;;;;5027460;28;20034;-76
2022/01/22 11:29:47;;;;;;;2.53;1.20;;;6.60;96.90;;;;;;5029895;28;20049;-77
2022/01/22 11:32:14;;;;;;;4.05;1.50;;;6.60;96.90;;;;;;5023131;28;20085;-76
2022/01/22 11:34:43;;;;;;;3.22;1.10;;;6.60;97.00;;;;;;5026136;28;20051;-78
2022/01/22 11:37:19;;;;;;;5.47;1.48;;;6.60;97.10;;;;;;5027988;28;20076;-77
2022/01/22 11:39:44;;;;;;;3.28;1.90;;;6.50;97.10;;;;;;5026830;28;20448;-76
2022/01/22 11:42:10;;;;;;;1.85;1.08;;;6.60;97.10;;;;;;5026553;28;20037;-76
2022/01/22 11:44:50;;;;;;;4.55;1.45;;;6.50;97.20;;;;;;5033346;28;20025;-76
2022/01/22 11:47:22;;;;;;;7.07;2.17;;;6.50;97.20;;;;;;5023099;28;20084;-77
2022/01/22 11:50:11;;;;;;;3.42;1.95;;;6.60;97.30;;;;;;5030625;28;20025;-76
2022/01/22 11:52:39;;;;;;;3.17;1.70;;;6.60;97.30;;;;;;5027034;28;20017;-75
2022/01/22 11:55:11;;;;;;;3.10;1.80;;;6.60;97.20;;;;;;5029362;28;20025;-76
2022/01/22 11:57:38;;;;;;;2.53;1.40;;;6.60;96.90;;;;;;5027376;28;20030;-75
2022/01/22 12:00:28;;;;;;;3.13;1.15;;;6.60;96.70;;;;;;5030596;28;20029;-75
2022/01/22 12:03:03;;;;;;;1.33;0.70;;;6.60;96.40;;;;;;5029385;28;20034;-76
2022/01/22 12:05:29;;;;;;;1.58;0.70;;;6.60;95.90;;;;;;5032762;28;20040;-76
2022/01/22 12:07:59;;;;;;;2.75;1.13;;;6.70;96.00;;;;;;5031070;28;20034;-77
2022/01/22 12:10:40;;;;;;;1.95;0.77;;;6.70;95.90;;;;;;5027483;28;20022;-76
2022/01/22 12:16:09;;;;;;;6.30;1.27;;;6.70;95.70;;;;;;5041783;28;20530;-77
2022/01/22 12:18:40;;;;;;;4.07;1.10;;;6.70;95.10;;;;;;5029160;28;20096;-77
2022/01/22 12:23:31;;;;;;;5.65;1.73;;;6.70;94.50;;;;;;5027770;28;19905;-77
2022/01/22 12:25:59;;;;;;;2.47;1.30;;;6.70;94.20;;;;;;5038370;28;20360;-77
2022/01/22 12:28:45;;;;;;;3.20;1.23;;;6.80;94.30;;;;;;5023543;28;20076;-78
2022/01/22 12:31:19;;;;;;;4.40;1.35;;;6.80;94.50;;;;;;5031351;28;20123;-78
2022/01/22 12:33:47;;;;;;;1.92;1.10;;;6.80;94.20;;;;;;5034190;28;20104;-79
2022/01/22 12:36:23;;;;;;;2.97;1.23;;;6.80;94.20;;;;;;5031495;28;20522;-77
2022/01/22 12:39:04;;;;;;;3.58;1.13;;;6.90;94.30;;;;;;5022774;28;20030;-76
2022/01/22 12:41:34;;;;;;;2.10;1.15;;;6.90;94.30;;;;;;5024604;28;20034;-77
2022/01/22 12:44:28;;;;;;;2.17;1.40;;;6.90;94.30;;;;;;5019914;28;20018;-76
2022/01/22 12:46:59;;;;;;;2.35;1.15;;;6.80;94.20;;;;;;5025138;28;20477;-76
2022/01/22 12:49:26;;;;;;;2.65;1.20;;;6.80;94.20;;;;;;5031452;28;20025;-76
2022/01/22 12:52:00;;;;;;;3.00;1.00;;;6.80;94.40;;;;;;5028199;28;20032;-76
2022/01/22 12:54:36;;;;;;;1.15;0.80;;;6.80;94.40;;;;;;5028658;28;20030;-76
2022/01/22 12:57:07;;;;;;;2.45;1.17;;;6.80;94.20;;;;;;5026344;28;20515;-76
2022/01/22 13:00:10;;;;;;;2.00;1.20;;;6.80;94.50;;;;;;5033924;28;20365;-76
2022/01/22 13:02:37;;;;;;;1.38;0.85;;;6.70;94.50;;;;;;5022087;28;20473;-75
2022/01/22 13:05:04;;;;;;;1.42;0.70;;;6.70;94.20;;;;;;5018865;28;20049;-75
2022/01/22 13:07:40;;;;;;;1.58;0.80;;;6.70;94.20;;;;;;5023509;28;20026;-77
2022/01/22 13:10:07;;;;;;;2.28;0.80;;;6.60;94.20;;;;;;5032587;28;20029;-76
2022/01/22 13:12:41;;;;;;;1.58;1.00;;;6.70;94.20;;;;;;5023910;28;20091;-76
2022/01/22 13:15:10;;;;;;;3.75;1.23;;;6.60;94.20;;;;;;5025414;28;20153;-77
2022/01/22 13:17:38;;;;;;;1.23;0.80;;;6.60;94.20;;;;;;5028645;28;20033;-77
2022/01/22 13:20:05;;;;;;;0.95;0.70;;;6.70;94.20;;;;;;5033500;28;20465;-77
2022/01/22 13:22:38;;;;;;;2.92;0.90;;;6.70;94.10;;;;;;5031241;28;20030;-77
2022/01/22 13:25:09;;;;;;;1.63;0.88;;;6.80;94.10;;;;;;5025505;28;20464;-78
2022/01/22 13:27:36;;;;;;;2.65;0.90;;;6.90;94.40;;;;;;5028328;28;20056;-76
2022/01/22 13:30:04;;;;;;;0.93;0.60;;;7.10;94.20;;;;;;5030739;28;20109;-76
2022/01/22 13:32:48;;;;;;;3.60;0.93;;;7.20;94.10;;;;;;5032524;28;20062;-76
2022/01/22 13:49:04;;;;;;;1.55;0.77;;;6.70;94.40;;;;;;5029625;28;20079;-74
2022/01/22 13:51:31;;;;;;;0.57;0.50;;;6.60;94.20;;;;;;5011049;28;20461;-75
2022/01/22 13:53:58;;;;;;;0.50;0.50;;;6.50;93.80;;;;;;5039219;28;20022;-77
2022/01/22 13:56:50;;;;;;;0.85;0.70;;;6.40;93.70;;;;;;5024837;28;20472;-78
2022/01/22 13:59:30;;;;;;;1.40;0.50;;;6.40;93.90;;;;;;5019462;28;20373;-76
2022/01/22 14:02:51;;;;;;;1.40;0.52;;;6.40;94.00;;;;;;5023234;28;20121;-76
2022/01/22 14:05:17;;;;;;;2.27;0.87;;;6.30;93.90;;;;;;5029529;28;20065;-76
2022/01/22 14:07:48;;;;;;;0.65;0.50;;;6.40;93.90;;;;;;5038425;28;20037;-77
2022/01/22 14:10:22;;;;;;;0.45;0.45;;;6.40;94.00;;;;;;5022468;28;20048;-76
2022/01/22 14:12:59;;;;;;;1.08;0.40;;;6.40;93.90;;;;;;5026690;28;20083;-79
2022/01/22 14:15:32;;;;;;;0.88;0.40;;;6.40;93.90;;;;;;5029375;28;20495;-80
2022/01/22 14:18:09;;;;;;;0.57;0.50;;;6.30;94.20;;;;;;5033611;28;20136;-79
2022/01/22 14:20:52;;;;;;;2.67;0.63;;;6.30;94.60;;;;;;5032733;28;20044;-81
2022/01/22 14:23:39;;;;;;;3.38;0.73;;;6.30;95.00;;;;;;5030234;28;20025;-78
2022/01/22 14:26:09;;;;;;;0.80;0.40;;;6.20;95.30;;;;;;5030882;28;20034;-78
2022/01/22 14:28:41;;;;;;;1.15;0.60;;;6.20;95.30;;;;;;5031240;28;20021;-78
2022/01/22 14:31:43;;;;;;;2.10;0.60;;;6.20;95.40;;;;;;5029974;28;20017;-80
2022/01/22 14:34:14;;;;;;;1.02;0.60;;;6.20;95.60;;;;;;5033732;28;20069;-79
2022/01/22 14:36:45;;;;;;;0.70;0.60;;;6.30;95.70;;;;;;5024699;28;20353;-80
2022/01/22 14:44:36;;;;;;;2.92;1.10;;;6.40;95.40;;;;;;5031931;28;20095;-81
2022/01/22 14:47:13;;;;;;;0.93;0.45;;;6.30;94.70;;;;;;5039748;28;20488;-81
2022/01/22 14:49:44;;;;;;;3.08;0.80;;;6.40;94.20;;;;;;5033862;28;20036;-81
2022/01/22 14:52:13;;;;;;;1.25;0.55;;;6.40;94.30;;;;;;5026860;28;20148;-80
2022/01/22 14:54:44;;;;;;;3.90;1.00;;;6.50;94.10;;;;;;5030580;28;20028;-79
2022/01/22 14:57:11;;;;;;;2.13;0.77;;;6.50;94.00;;;;;;5034532;28;20044;-79